createdAt,value
2023-01-04T00:00:35.483Z,100519.47
2023-01-04T00:01:39.771Z,100509.14
2023-01-04T00:02:44.231Z,100511.72
2023-01-04T00:03:49.306Z,100515.33
2023-01-04T00:04:53.762Z,100518.09
2023-01-04T00:05:57.913Z,100523.3
2023-01-04T00:07:02.066Z,100514.75
2023-01-04T00:08:06.220Z,100525.63
2023-01-04T00:09:10.362Z,100525.63
2023-01-04T00:10:14.502Z,100526.2
2023-01-04T00:11:18.723Z,100517.08
2023-01-04T00:12:22.922Z,100526.71
2023-01-04T00:13:27.357Z,100525.53
2023-01-04T00:14:31.479Z,100522.95
2023-01-04T00:15:35.730Z,100518.93
2023-01-04T00:16:40.132Z,100519.19
2023-01-04T00:17:44.481Z,100525.98
2023-01-04T00:18:48.657Z,100519.92
2023-01-04T00:19:53.646Z,100520.62
2023-01-04T00:20:57.931Z,100522.53
2023-01-04T00:22:02.081Z,100526.55
2023-01-04T00:23:06.219Z,100525.12
2023-01-04T00:24:10.372Z,100527.48
2023-01-04T00:25:14.552Z,100533.25
2023-01-04T00:26:18.742Z,100530.83
2023-01-04T00:27:22.880Z,100534.34
2023-01-04T00:28:27.048Z,100529.48
2023-01-04T00:29:31.187Z,100537.17
2023-01-04T00:30:35.336Z,100529.05
2023-01-04T00:31:39.707Z,100535.84
2023-01-04T00:32:44.098Z,100542.79
2023-01-04T00:33:48.259Z,100535.07
2023-01-04T00:34:52.373Z,100535.99
2023-01-04T00:35:56.712Z,100532.33
2023-01-04T00:37:00.960Z,100530.12
2023-01-04T00:38:05.427Z,100535.17
2023-01-04T00:39:10.707Z,100535
2023-01-04T00:40:15.108Z,100531.41
2023-01-04T00:41:59.990Z,100534.56
2023-01-04T00:43:05.306Z,100529.04
2023-01-04T00:44:09.432Z,100531.97
2023-01-04T00:45:13.706Z,100526.27
2023-01-04T00:46:17.948Z,100530.28
2023-01-04T00:47:22.223Z,100524.77
2023-01-04T00:48:26.521Z,100524.09
2023-01-04T00:49:30.704Z,100517.23
2023-01-04T00:50:34.851Z,100514.87
2023-01-04T00:51:39.056Z,100517.91
2023-01-04T00:52:43.200Z,100522.86
2023-01-04T00:53:47.315Z,100513.73
2023-01-04T00:54:51.480Z,100517.3
2023-01-04T00:55:55.625Z,100515.33
2023-01-04T00:56:59.780Z,100522.09
2023-01-04T00:58:03.903Z,100520.33
2023-01-04T00:59:08.021Z,100528.87
2023-01-04T01:00:12.164Z,100523.27
2023-01-04T01:01:16.572Z,100523.75
2023-01-04T01:02:21.284Z,100521.83
2023-01-04T01:03:25.948Z,100525.84
2023-01-04T01:04:30.509Z,100517.23
2023-01-04T01:05:34.679Z,100526.01
2023-01-04T01:06:38.816Z,100517.05
2023-01-04T01:07:42.977Z,100518.73
2023-01-04T01:08:47.133Z,100517.46
2023-01-04T01:09:51.289Z,100518.33
2023-01-04T01:10:55.435Z,100515.55
2023-01-04T01:11:59.600Z,100510.7
2023-01-04T01:13:04.070Z,100508.28
2023-01-04T01:14:08.248Z,100513.89
2023-01-04T01:15:12.379Z,100509.68
2023-01-04T01:16:16.656Z,100514.78
2023-01-04T01:17:24.103Z,100506.58
2023-01-04T01:18:28.238Z,100505.81
2023-01-04T01:19:32.409Z,100511.11
2023-01-04T01:20:36.538Z,100507.52
2023-01-04T01:21:40.683Z,100508.5
2023-01-04T01:22:44.837Z,100508.18
2023-01-04T01:23:48.971Z,100504.48
2023-01-04T01:24:53.106Z,100509.27
2023-01-04T01:25:57.258Z,100504.83
2023-01-04T01:27:01.394Z,100502.41
2023-01-04T01:28:05.544Z,100505.81
2023-01-04T01:29:09.709Z,100494.02
2023-01-04T01:30:13.880Z,100506.23
2023-01-04T01:31:18.133Z,100505.41
2023-01-04T01:32:22.369Z,100494.69
2023-01-04T01:33:26.531Z,100502.63
2023-01-04T01:34:30.646Z,100500.46
2023-01-04T01:35:34.754Z,100499.13
2023-01-04T01:36:38.956Z,100500.81
2023-01-04T01:37:43.145Z,100502.98
2023-01-04T01:38:47.302Z,100505.15
2023-01-04T01:39:51.452Z,100505.5
2023-01-04T01:40:55.593Z,100505.15
2023-01-04T01:41:59.788Z,100501.64
2023-01-04T01:43:03.934Z,100505.15
2023-01-04T01:44:08.125Z,100501.23
2023-01-04T01:45:12.316Z,100502.05
2023-01-04T01:46:16.572Z,100508.75
2023-01-04T01:47:20.764Z,100499.79
2023-01-04T01:48:24.892Z,100497.37
2023-01-04T01:49:29.064Z,100500.81
2023-01-04T01:50:33.213Z,100501.73
2023-01-04T01:51:37.445Z,100490.58
2023-01-04T01:52:41.592Z,100501.8
2023-01-04T01:53:45.733Z,100493
2023-01-04T01:54:49.878Z,100500.14
2023-01-04T01:55:54.189Z,100500.14
2023-01-04T01:56:58.335Z,100506.39
2023-01-04T01:58:02.447Z,100499.79
2023-01-04T01:59:06.579Z,100494.53
2023-01-04T02:00:10.717Z,100500.81
2023-01-04T02:01:15.101Z,100500.81
2023-01-04T02:02:20.042Z,100499.69
2023-01-04T02:03:24.960Z,100498.77
2023-01-04T02:04:29.490Z,100505.81
2023-01-04T02:05:33.631Z,100497.11
2023-01-04T02:06:37.825Z,100503.8
2023-01-04T02:07:41.945Z,100502.05
2023-01-04T02:08:46.101Z,100514.84
2023-01-04T02:09:50.267Z,100511.42
2023-01-04T02:10:54.413Z,100508.59
2023-01-04T02:11:58.610Z,100519.3
2023-01-04T02:13:02.775Z,100514.84
2023-01-04T02:14:06.929Z,100515.7
2023-01-04T02:15:11.098Z,100515.28
2023-01-04T02:16:15.573Z,100515.28
2023-01-04T02:17:20.659Z,100509.48
2023-01-04T02:18:24.853Z,100520.38
2023-01-04T02:19:29.013Z,100511.42
2023-01-04T02:20:33.133Z,100518.95
2023-01-04T02:21:37.286Z,100517.45
2023-01-04T02:22:41.454Z,100523.06
2023-01-04T02:23:45.576Z,100522.2
2023-01-04T02:24:49.718Z,100520.03
2023-01-04T02:25:54.114Z,100521.05
2023-01-04T02:26:58.366Z,100519.71
2023-01-04T02:28:02.544Z,100518.17
2023-01-04T02:29:06.668Z,100518.84
2023-01-04T02:30:10.798Z,100519.36
2023-01-04T02:31:15.123Z,100508.48
2023-01-04T02:32:19.448Z,100511.73
2023-01-04T02:33:23.576Z,100504.88
2023-01-04T02:34:27.688Z,100501.85
2023-01-04T02:35:31.830Z,100502.52
2023-01-04T02:36:36.005Z,100506.95
2023-01-04T02:37:40.138Z,100501.19
2023-01-04T02:38:44.263Z,100500.77
2023-01-04T02:39:48.387Z,100504.38
2023-01-04T02:40:52.534Z,100497
2023-01-04T02:41:56.689Z,100502.68
2023-01-04T02:43:00.823Z,100498.5
2023-01-04T02:44:04.939Z,100493.5
2023-01-04T02:45:09.095Z,100503.61
2023-01-04T02:46:13.408Z,100497.73
2023-01-04T02:47:17.828Z,100492.89
2023-01-04T02:48:22.101Z,100493.98
2023-01-04T02:49:26.238Z,100494.23
2023-01-04T02:50:30.357Z,100493.14
2023-01-04T02:51:34.630Z,100488.72
2023-01-04T02:52:38.818Z,100486.55
2023-01-04T02:53:42.952Z,100485.36
2023-01-04T02:54:47.067Z,100481.09
2023-01-04T02:55:51.207Z,100485.02
2023-01-04T02:57:05.098Z,100488.77
2023-01-04T02:58:09.755Z,100483.27
2023-01-04T02:59:13.895Z,100479.25
2023-01-04T03:00:19.137Z,100477.74
2023-01-04T03:01:24.396Z,100486.52
2023-01-04T03:02:29.349Z,100483.26
2023-01-04T03:03:34.043Z,100480.84
2023-01-04T03:04:38.410Z,100477.33
2023-01-04T03:05:42.611Z,100473.47
2023-01-04T03:06:46.720Z,100468.78
2023-01-04T03:07:50.901Z,100471.63
2023-01-04T03:08:55.079Z,100472.64
2023-01-04T03:09:59.215Z,100470.02
2023-01-04T03:11:03.340Z,100469.52
2023-01-04T03:12:07.523Z,100465.02
2023-01-04T03:13:11.647Z,100466.01
2023-01-04T03:14:33.789Z,100463.75
2023-01-04T03:15:37.974Z,100465.09
2023-01-04T03:16:43.142Z,100465.95
2023-01-04T03:17:48.728Z,100465.09
2023-01-04T03:18:52.846Z,100462.56
2023-01-04T03:19:57.049Z,100454.98
2023-01-04T03:21:01.325Z,100449.84
2023-01-04T03:22:05.480Z,100456.8
2023-01-04T03:23:09.621Z,100445.52
2023-01-04T03:24:13.747Z,100451.54
2023-01-04T03:25:17.872Z,100450.97
2023-01-04T03:26:22.032Z,100450.36
2023-01-04T03:27:26.160Z,100448.92
2023-01-04T03:28:30.353Z,100452.62
2023-01-04T03:29:34.493Z,100444.59
2023-01-04T03:30:38.623Z,100449.38
2023-01-04T03:31:43.040Z,100455.5
2023-01-04T03:32:47.279Z,100446.13
2023-01-04T03:33:51.478Z,100447.98
2023-01-04T03:34:55.612Z,100446.32
2023-01-04T03:35:59.746Z,100443.38
2023-01-04T03:37:03.895Z,100451.1
2023-01-04T03:38:08.083Z,100446.92
2023-01-04T03:39:12.226Z,100444.14
2023-01-04T03:40:16.355Z,100445
2023-01-04T03:41:20.529Z,100448.02
2023-01-04T03:42:24.669Z,100456.12
2023-01-04T03:43:28.803Z,100444.84
2023-01-04T03:44:32.971Z,100453.97
2023-01-04T03:45:37.368Z,100456.48
2023-01-04T03:46:41.634Z,100449.88
2023-01-04T03:47:45.960Z,100452.05
2023-01-04T03:48:50.078Z,100449.97
2023-01-04T03:49:54.197Z,100449.95
2023-01-04T03:50:58.315Z,100450.11
2023-01-04T03:52:02.464Z,100451.02
2023-01-04T03:53:06.622Z,100451.72
2023-01-04T03:54:10.884Z,100454.2
2023-01-04T03:55:15.400Z,100449.09
2023-01-04T03:56:19.535Z,100439.96
2023-01-04T03:57:23.692Z,100450.87
2023-01-04T03:58:27.842Z,100451.7
2023-01-04T03:59:32.004Z,100448.24
2023-01-04T04:00:36.259Z,100447.5
2023-01-04T04:01:40.878Z,100442.48
2023-01-04T04:02:45.384Z,100442.38
2023-01-04T04:03:49.657Z,100444.06
2023-01-04T04:04:54.234Z,100442.54
2023-01-04T04:05:58.727Z,100440.59
2023-01-04T04:07:02.896Z,100443.96
2023-01-04T04:08:07.061Z,100433.4
2023-01-04T04:09:11.199Z,100438.25
2023-01-04T04:10:15.343Z,100431.45
2023-01-04T04:11:19.527Z,100426.99
2023-01-04T04:12:24.657Z,100434.7
2023-01-04T04:13:29.212Z,100428.08
2023-01-04T04:14:34.496Z,100426.33
2023-01-04T04:15:38.763Z,100426.89
2023-01-04T04:16:43.102Z,100424.62
2023-01-04T04:17:47.373Z,100428.72
2023-01-04T04:18:51.587Z,100435.67
2023-01-04T04:19:55.707Z,100430.97
2023-01-04T04:20:59.841Z,100425.69
2023-01-04T04:22:04.012Z,100428.1
2023-01-04T04:23:08.152Z,100430.06
2023-01-04T04:24:12.313Z,100427.7
2023-01-04T04:25:16.440Z,100423.58
2023-01-04T04:26:20.644Z,100425.09
2023-01-04T04:27:24.832Z,100419.8
2023-01-04T04:28:28.968Z,100431.09
2023-01-04T04:29:33.167Z,100427.41
2023-01-04T04:30:37.290Z,100421.02
2023-01-04T04:31:41.508Z,100422.45
2023-01-04T04:32:45.873Z,100424.19
2023-01-04T04:33:49.982Z,100420.82
2023-01-04T04:34:54.150Z,100428.02
2023-01-04T04:35:58.477Z,100420.63
2023-01-04T04:37:02.756Z,100424.17
2023-01-04T04:38:06.886Z,100426.14
2023-01-04T04:39:11.017Z,100421.43
2023-01-04T04:40:15.854Z,100420.92
2023-01-04T04:41:19.991Z,100423.53
2023-01-04T04:42:24.124Z,100428.05
2023-01-04T04:43:28.323Z,100422.74
2023-01-04T04:44:32.529Z,100424.26
2023-01-04T04:45:36.809Z,100422.64
2023-01-04T04:46:41.194Z,100424.81
2023-01-04T04:47:46.177Z,100425.06
2023-01-04T04:48:50.351Z,100425.88
2023-01-04T04:49:54.494Z,100420.17
2023-01-04T04:50:58.636Z,100413.8
2023-01-04T04:52:02.792Z,100413.84
2023-01-04T04:53:06.926Z,100414.08
2023-01-04T04:54:11.107Z,100414.94
2023-01-04T04:55:15.302Z,100415.02
2023-01-04T04:56:19.452Z,100403.89
2023-01-04T04:57:24.113Z,100407.19
2023-01-04T04:58:28.629Z,100418
2023-01-04T04:59:33.011Z,100412.8
2023-01-04T05:00:37.173Z,100411.32
2023-01-04T05:01:41.624Z,100400.83
2023-01-04T05:02:46.541Z,100396.52
2023-01-04T05:03:51.122Z,100396.34
2023-01-04T05:04:55.633Z,100399.2
2023-01-04T05:05:59.989Z,100396.72
2023-01-04T05:07:12.545Z,100398.74
2023-01-04T05:08:17.372Z,100394.13
2023-01-04T05:09:21.668Z,100394.33
2023-01-04T05:10:25.854Z,100394.59
2023-01-04T05:11:29.979Z,100388.64
2023-01-04T05:12:34.667Z,100384.47
2023-01-04T05:13:38.806Z,100383.88
2023-01-04T05:14:43.051Z,100387.91
2023-01-04T05:15:47.333Z,100379.16
2023-01-04T05:16:52.057Z,100378.81
2023-01-04T05:17:56.284Z,100373.47
2023-01-04T05:19:00.729Z,100366.35
2023-01-04T05:20:05.428Z,100369.24
2023-01-04T05:21:09.588Z,100366.92
2023-01-04T05:22:13.750Z,100362.49
2023-01-04T05:23:18.733Z,100362.66
2023-01-04T05:24:24.654Z,100352.61
2023-01-04T05:25:30.061Z,100351.03
2023-01-04T05:26:34.258Z,100344.48
2023-01-04T05:27:38.661Z,100350.13
2023-01-04T05:28:53.551Z,100348.53
2023-01-04T05:29:58.071Z,100345.67
2023-01-04T05:31:02.203Z,100341.24
2023-01-04T05:32:06.544Z,100354.75
2023-01-04T05:33:10.825Z,100348.55
2023-01-04T05:34:23.198Z,100352.82
2023-01-04T05:35:27.761Z,100353.5
2023-01-04T05:36:31.903Z,100344.28
2023-01-04T05:37:36.312Z,100338.42
2023-01-04T05:38:40.472Z,100345.58
2023-01-04T05:39:44.694Z,100351.42
2023-01-04T05:40:49.670Z,100351.02
2023-01-04T05:41:54.387Z,100356.95
2023-01-04T05:43:02.927Z,100354.47
2023-01-04T05:44:07.141Z,100358.15
2023-01-04T05:45:13.399Z,100348.69
2023-01-04T05:46:17.749Z,100351.2
2023-01-04T05:47:22.010Z,100350.13
2023-01-04T05:48:26.176Z,100348.19
2023-01-04T05:49:30.308Z,100348.02
2023-01-04T05:50:35.761Z,100359.36
2023-01-04T05:51:40.380Z,100350.31
2023-01-04T05:52:44.535Z,100354.17
2023-01-04T05:53:48.691Z,100358.67
2023-01-04T05:54:53.084Z,100350.89
2023-01-04T05:55:57.295Z,100354.5
2023-01-04T05:57:01.432Z,100351.5
2023-01-04T05:58:05.609Z,100352.5
2023-01-04T05:59:09.750Z,100350.56
2023-01-04T06:00:13.940Z,100350.81
2023-01-04T06:01:18.249Z,100352.34
2023-01-04T06:02:23.170Z,100343.3
2023-01-04T06:03:28.022Z,100345.81
2023-01-04T06:04:32.486Z,100349.91
2023-01-04T06:05:36.610Z,100351.34
2023-01-04T06:06:40.819Z,100352.78
2023-01-04T06:07:44.994Z,100349.75
2023-01-04T06:08:49.193Z,100351.61
2023-01-04T06:09:53.375Z,100349.67
2023-01-04T06:10:57.555Z,100343.48
2023-01-04T06:12:01.737Z,100342.31
2023-01-04T06:13:05.890Z,100351.42
2023-01-04T06:14:10.090Z,100348.19
2023-01-04T06:15:14.250Z,100347.6
2023-01-04T06:16:18.512Z,100346.84
2023-01-04T06:17:22.711Z,100348.34
2023-01-04T06:18:26.972Z,100348.93
2023-01-04T06:19:31.212Z,100350.93
2023-01-04T06:20:35.396Z,100348
2023-01-04T06:21:39.586Z,100344.5
2023-01-04T06:22:43.815Z,100344.18
2023-01-04T06:23:48.074Z,100337.06
2023-01-04T06:24:53.096Z,100336.88
2023-01-04T06:25:58.284Z,100339.25
2023-01-04T06:27:02.486Z,100338.16
2023-01-04T06:28:06.651Z,100339.66
2023-01-04T06:29:11.283Z,100338.14
2023-01-04T06:30:15.546Z,100333.13
2023-01-04T06:31:19.876Z,100332.78
2023-01-04T06:32:25.302Z,100332.88
2023-01-04T06:33:29.974Z,100325.27
2023-01-04T06:34:34.989Z,100325.27
2023-01-04T06:35:39.246Z,100327.27
2023-01-04T06:36:43.448Z,100324.69
2023-01-04T06:37:47.819Z,100321.77
2023-01-04T06:38:53.105Z,100322.59
2023-01-04T06:39:57.255Z,100318.16
2023-01-04T06:41:01.392Z,100317.8
2023-01-04T06:42:08.074Z,100320.59
2023-01-04T06:43:12.209Z,100318.42
2023-01-04T06:44:16.414Z,100316.16
2023-01-04T06:45:20.565Z,100315.3
2023-01-04T06:46:24.909Z,100314.7
2023-01-04T06:47:29.124Z,100310.84
2023-01-04T06:48:33.331Z,100314.45
2023-01-04T06:49:37.507Z,100311.67
2023-01-04T06:50:41.636Z,100313.11
2023-01-04T06:51:45.798Z,100313.69
2023-01-04T06:52:49.919Z,100311.84
2023-01-04T06:53:54.139Z,100317.3
2023-01-04T06:54:58.377Z,100319.66
2023-01-04T06:56:02.523Z,100316.12
2023-01-04T06:57:06.707Z,100315.7
2023-01-04T06:58:10.815Z,100313.61
2023-01-04T06:59:14.968Z,100307.93
2023-01-04T07:00:19.108Z,100313.8
2023-01-04T07:01:23.684Z,100313.36
2023-01-04T07:02:28.519Z,100312.69
2023-01-04T07:03:32.909Z,100324.17
2023-01-04T07:04:37.335Z,100318.66
2023-01-04T07:05:41.566Z,100319.75
2023-01-04T07:06:45.722Z,100316.56
2023-01-04T07:07:49.889Z,100319.23
2023-01-04T07:08:54.058Z,100322.02
2023-01-04T07:10:00.247Z,100315.97
2023-01-04T07:11:12.675Z,100316.31
2023-01-04T07:12:16.813Z,100317.65
2023-01-04T07:13:21.026Z,100311.78
2023-01-04T07:14:25.183Z,100314.14
2023-01-04T07:15:41.362Z,100306.17
2023-01-04T07:16:45.900Z,100318.33
2023-01-04T07:17:51.079Z,100317.91
2023-01-04T07:18:55.246Z,100318.17
2023-01-04T07:19:59.412Z,100320.59
2023-01-04T07:21:03.608Z,100318.42
2023-01-04T07:22:07.777Z,100313.81
2023-01-04T07:23:11.935Z,100320.86
2023-01-04T07:24:16.126Z,100317.48
2023-01-04T07:25:20.254Z,100315.16
2023-01-04T07:26:24.523Z,100314.38
2023-01-04T07:27:28.643Z,100315
2023-01-04T07:28:32.767Z,100310.98
2023-01-04T07:29:37.260Z,100303.52
2023-01-04T07:30:41.717Z,100300.59
2023-01-04T07:31:45.984Z,100295.14
2023-01-04T07:32:50.121Z,100296.67
2023-01-04T07:33:54.291Z,100299.66
2023-01-04T07:34:58.454Z,100295.33
2023-01-04T07:36:02.633Z,100299.83
2023-01-04T07:37:06.871Z,100296.42
2023-01-04T07:38:11.064Z,100298.26
2023-01-04T07:39:15.232Z,100297.25
2023-01-04T07:40:19.370Z,100302.03
2023-01-04T07:41:23.493Z,100293.13
2023-01-04T07:42:27.650Z,100301.58
2023-01-04T07:43:31.808Z,100302.51
2023-01-04T07:44:35.948Z,100293.39
2023-01-04T07:45:40.073Z,100297.98
2023-01-04T07:46:44.482Z,100306.38
2023-01-04T07:47:49.014Z,100299.94
2023-01-04T07:48:53.158Z,100299.33
2023-01-04T07:49:57.312Z,100300.6
2023-01-04T07:51:01.465Z,100297.33
2023-01-04T07:52:05.592Z,100300.34
2023-01-04T07:53:09.779Z,100298.59
2023-01-04T07:54:13.940Z,100305.77
2023-01-04T07:55:18.321Z,100304.02
2023-01-04T07:56:22.607Z,100304.95
2023-01-04T07:57:26.789Z,100301.19
2023-01-04T07:58:30.929Z,100305.45
2023-01-04T07:59:35.087Z,100300.84
2023-01-04T08:00:39.235Z,100299.69
2023-01-04T08:01:43.684Z,100289.65
2023-01-04T08:02:48.406Z,100287.38
2023-01-04T08:03:52.846Z,100288.98
2023-01-04T08:04:57.160Z,100289.65
2023-01-04T08:06:01.515Z,100290.12
2023-01-04T08:07:05.646Z,100288.37
2023-01-04T08:08:09.853Z,100284.87
2023-01-04T08:09:14.007Z,100280.03
2023-01-04T08:10:18.145Z,100278.5
2023-01-04T08:11:22.291Z,100271.8
2023-01-04T08:12:26.416Z,100271.13
2023-01-04T08:13:30.531Z,100277.92
2023-01-04T08:14:34.736Z,100267.73
2023-01-04T08:15:38.965Z,100271.33
2023-01-04T08:16:43.184Z,100264.13
2023-01-04T08:17:47.315Z,100268.65
2023-01-04T08:18:51.439Z,100266.38
2023-01-04T08:19:55.619Z,100269.23
2023-01-04T08:20:59.786Z,100273.14
2023-01-04T08:22:03.931Z,100259.52
2023-01-04T08:23:08.042Z,100270.98
2023-01-04T08:24:12.173Z,100270.56
2023-01-04T08:25:16.341Z,100264.96
2023-01-04T08:26:20.516Z,100269.73
2023-01-04T08:27:24.678Z,100274.68
2023-01-04T08:28:28.813Z,100271.24
2023-01-04T08:29:36.229Z,100276.41
2023-01-04T08:30:40.362Z,100276.19
2023-01-04T08:31:44.680Z,100282.36
2023-01-04T08:32:49.104Z,100280.2
2023-01-04T08:33:53.564Z,100280.27
2023-01-04T08:34:57.688Z,100281.7
2023-01-04T08:36:01.851Z,100280.36
2023-01-04T08:37:06.447Z,100278.2
2023-01-04T08:39:00.297Z,100282.62
2023-01-04T08:40:05.766Z,100277.5
2023-01-04T08:43:19.270Z,100283.45
2023-01-04T08:44:23.426Z,100282.11
2023-01-04T08:45:27.595Z,100276.16
2023-01-04T08:46:31.825Z,100279.02
2023-01-04T08:47:36.160Z,100275.27
2023-01-04T08:48:40.303Z,100277.34
2023-01-04T08:49:44.441Z,100283.97
2023-01-04T08:50:48.611Z,100282.21
2023-01-04T08:51:52.756Z,100283.45
2023-01-04T08:52:57.034Z,100280.36
2023-01-04T08:54:01.219Z,100289.32
2023-01-04T08:55:13.485Z,100283.97
2023-01-04T08:56:24.717Z,100283.97
2023-01-04T08:57:28.921Z,100277.75
2023-01-04T08:58:33.063Z,100275.52
2023-01-04T08:59:37.188Z,100275.42
2023-01-04T09:00:41.340Z,100265.04
2023-01-04T09:01:45.680Z,100266.97
2023-01-04T09:02:50.456Z,100262.55
2023-01-04T09:03:54.921Z,100261.52
2023-01-04T09:04:59.293Z,100255.59
2023-01-04T09:06:03.713Z,100250
2023-01-04T09:07:07.851Z,100249.22
2023-01-04T09:08:12.041Z,100258.02
2023-01-04T09:09:16.261Z,100247.66
2023-01-04T09:10:20.403Z,100247.41
2023-01-04T09:11:24.542Z,100247.97
2023-01-04T09:12:28.706Z,100245.7
2023-01-04T09:13:32.873Z,100240.09
2023-01-04T09:14:37.037Z,100238.34
2023-01-04T09:15:41.852Z,100236.59
2023-01-04T09:16:46.412Z,100240.03
2023-01-04T09:18:32.394Z,100238.44
2023-01-04T09:19:36.905Z,100236.27
2023-01-04T09:20:41.071Z,100235.09
2023-01-04T09:21:46.125Z,100236.07
2023-01-04T09:22:50.338Z,100236.99
2023-01-04T09:23:54.497Z,100231.57
2023-01-04T09:24:58.633Z,100230.5
2023-01-04T09:26:09.994Z,100231.98
2023-01-04T09:27:14.165Z,100233.33
2023-01-04T09:28:18.357Z,100226.48
2023-01-04T09:29:22.544Z,100226.95
2023-01-04T09:30:26.670Z,100227.39
2023-01-04T09:31:31.010Z,100222.86
2023-01-04T09:32:35.227Z,100217.09
2023-01-04T09:34:16.314Z,100211.22
2023-01-04T09:35:21.626Z,100202.84
2023-01-04T09:36:25.776Z,100195.73
2023-01-04T09:37:30.048Z,100200.66
2023-01-04T09:38:34.191Z,100193.73
2023-01-04T09:39:38.380Z,100193.37
2023-01-04T09:40:42.533Z,100188.51
2023-01-04T09:41:46.673Z,100181.79
2023-01-04T09:43:22.258Z,100184.61
2023-01-04T09:46:29.104Z,100177.03
2023-01-04T09:47:33.347Z,100177.25
2023-01-04T09:48:37.546Z,100169.11
2023-01-04T09:49:41.710Z,100175.37
2023-01-04T09:50:45.850Z,100167.36
2023-01-04T09:51:49.970Z,100162.73
2023-01-04T09:52:54.630Z,100164.14
2023-01-04T09:53:58.803Z,100158.09
2023-01-04T09:55:40.624Z,100161.6
2023-01-04T09:56:45.486Z,100150.91
2023-01-04T09:57:49.635Z,100150.05
2023-01-04T09:58:53.776Z,100145.58
2023-01-04T09:59:57.913Z,100140.91
2023-01-04T10:01:02.242Z,100142.28
2023-01-04T10:02:07.122Z,100142.34
2023-01-04T10:03:11.904Z,100130.8
2023-01-04T10:04:18.096Z,100128.63
2023-01-04T10:05:22.812Z,100125.25
2023-01-04T10:06:26.976Z,100127.73
2023-01-04T10:07:31.125Z,100115.88
2023-01-04T10:08:35.372Z,100112.95
2023-01-04T10:09:39.525Z,100111.27
2023-01-04T10:10:43.640Z,100104.49
2023-01-04T10:11:47.814Z,100106.87
2023-01-04T10:12:59.921Z,100102.02
2023-01-04T10:14:04.312Z,100102.44
2023-01-04T10:15:09.331Z,100101.92
2023-01-04T10:16:17.278Z,100092.63
2023-01-04T10:22:38.792Z,100092.05
2023-01-04T10:23:42.957Z,100087.79
2023-01-04T10:24:47.199Z,100080.39
2023-01-04T10:25:51.388Z,100071.53
2023-01-04T10:26:55.550Z,100070.19
2023-01-04T10:27:59.680Z,100062.14
2023-01-04T10:29:03.810Z,100057.64
2023-01-04T10:30:08.135Z,100049.42
2023-01-04T10:31:42.370Z,100055.09
2023-01-04T10:32:46.688Z,100052.39
2023-01-04T10:33:53.834Z,100051.11
2023-01-04T10:34:58.051Z,100054.45
2023-01-04T10:36:02.700Z,100051.35
2023-01-04T10:37:06.941Z,100049.5
2023-01-04T10:38:11.071Z,100044
2023-01-04T10:39:15.557Z,100045.75
2023-01-04T10:40:21.587Z,100045.68
2023-01-04T10:41:26.379Z,100038.46
2023-01-04T10:42:30.535Z,100035.72
2023-01-04T10:44:14.063Z,100040.98
2023-01-04T10:45:19.408Z,100032.11
2023-01-04T10:46:24.074Z,100033.21
2023-01-04T10:47:28.493Z,100028.02
2023-01-04T10:48:32.662Z,100022.48
2023-01-04T10:49:37.196Z,100025.81
2023-01-04T10:50:41.340Z,100010.66
2023-01-04T10:51:45.499Z,100013.27
2023-01-04T10:52:49.709Z,100014.68
2023-01-04T10:53:54.007Z,100015.61
2023-01-04T10:54:58.411Z,100014.13
2023-01-04T10:56:27.833Z,100016.06
2023-01-04T10:57:33.349Z,100012.14
2023-01-04T10:58:37.510Z,100004.09
2023-01-04T10:59:56.699Z,100006.09
2023-01-04T11:01:01.377Z,100001.73
2023-01-04T11:02:06.814Z,99996.05
2023-01-04T11:03:12.401Z,99995.95
2023-01-04T11:04:17.470Z,100000.39
2023-01-04T11:05:21.897Z,99985.74
2023-01-04T11:06:26.560Z,99987.78
2023-01-04T11:07:30.801Z,99986.16
2023-01-04T11:08:34.985Z,99986.23
2023-01-04T11:09:39.191Z,99982.83
2023-01-04T11:10:43.599Z,99979.67
2023-01-04T11:11:49.769Z,99980.73
2023-01-04T11:12:54.924Z,99973.97
2023-01-04T11:13:59.081Z,99971.63
2023-01-04T11:15:04.161Z,99971.22
2023-01-04T11:16:10.940Z,99964.17
2023-01-04T11:17:15.422Z,99951.8
2023-01-04T11:18:19.948Z,99963.35
2023-01-04T11:19:24.130Z,99957.47
2023-01-04T11:20:36.106Z,99956.89
2023-01-04T11:21:42.004Z,99947.91
2023-01-04T11:22:46.688Z,99948.7
2023-01-04T11:23:56.466Z,99937.9
2023-01-04T11:25:41.379Z,99940.66
2023-01-04T11:26:45.528Z,99935.88
2023-01-04T11:27:49.660Z,99933.84
2023-01-04T11:28:53.758Z,99927.7
2023-01-04T11:29:57.970Z,99922.94
2023-01-04T11:31:02.506Z,99920.48
2023-01-04T11:32:07.245Z,99918.04
2023-01-04T11:33:11.961Z,99913.73
2023-01-04T11:34:16.290Z,99907.72
2023-01-04T11:35:20.408Z,99909.06
2023-01-04T11:36:26.007Z,99903.28
2023-01-04T11:37:30.228Z,99900.45
2023-01-04T11:38:34.348Z,99900.38
2023-01-04T11:39:38.448Z,99897.59
2023-01-04T11:40:42.551Z,99902.43
2023-01-04T11:41:46.684Z,99899.73
2023-01-04T11:42:50.972Z,99905.73
2023-01-04T11:43:56.099Z,99894.62
2023-01-04T11:45:00.362Z,99888.61
2023-01-04T11:46:05.087Z,99895.96
2023-01-04T11:47:09.593Z,99892.5
2023-01-04T11:48:15.922Z,99886.27
2023-01-04T11:49:20.039Z,99889.59
2023-01-04T11:50:25.425Z,99884.98
2023-01-04T11:51:30.243Z,99884.33
2023-01-04T11:52:34.495Z,99890.06
2023-01-04T11:53:38.612Z,99887.97
2023-01-04T11:54:42.707Z,99882.94
2023-01-04T11:55:46.808Z,99880.91
2023-01-04T11:56:51.006Z,99883.41
2023-01-04T11:57:55.116Z,99880.49
2023-01-04T11:58:59.240Z,99877.06
2023-01-04T12:00:03.408Z,99876.41
2023-01-04T12:01:07.634Z,99877.76
2023-01-04T12:02:12.801Z,99873.84
2023-01-04T12:03:45.788Z,99873.38
2023-01-04T12:04:49.880Z,99876.88
2023-01-04T12:05:54.103Z,99874.38
2023-01-04T12:06:58.519Z,99875.9
2023-01-04T12:08:02.659Z,99875.83
2023-01-04T12:09:06.859Z,99870.82
2023-01-04T12:10:11.249Z,99865.28
2023-01-04T12:11:15.422Z,99862.44
2023-01-04T12:12:19.687Z,99860.84
2023-01-04T12:13:24.292Z,99852.8
2023-01-04T12:14:28.391Z,99858.88
2023-01-04T12:15:32.482Z,99864.58
2023-01-04T12:16:37.136Z,99861.31
2023-01-04T12:17:44.690Z,99847.38
2023-01-04T12:18:48.897Z,99844.29
2023-01-04T12:19:52.996Z,99836.71
2023-01-04T12:20:57.104Z,99829.48
2023-01-04T12:22:01.318Z,99835.86
2023-01-04T12:23:05.419Z,99833.17
2023-01-04T12:24:09.606Z,99823.15
2023-01-04T12:25:13.931Z,99819.64
2023-01-04T12:26:18.093Z,99820.39
2023-01-04T12:27:22.216Z,99807.69
2023-01-04T12:28:26.627Z,99813.64
2023-01-04T12:29:30.727Z,99809.72
2023-01-04T12:30:34.863Z,99803.02
2023-01-04T12:31:38.985Z,99799.59
2023-01-04T12:32:43.178Z,99799.3
2023-01-04T12:33:47.420Z,99787.75
2023-01-04T12:34:51.579Z,99794.99
2023-01-04T12:35:55.752Z,99786.95
2023-01-04T12:37:06.377Z,99788.05
2023-01-04T12:38:10.615Z,99787.47